Terminal Aerodrome Forecast
Issued by NWS

Home | Current Version | Previous Version | Text Only | Print | Product List | Glossary Off
Versions: 1 2 3 4 5 6 7 8 9 10 11 12 13 14 15 16 17 18 19 20 21

000
FTUS43 KTOP 010500
TAFMHK
TAF
KMHK 010534Z 0106/0206 21011KT 6SM RA BR VCTS SCT040CB BKN090
     FM010900 25006KT 5SM RA BR VCTS SCT015 BKN090CB
      TEMPO 0110/0112 2SM BR
     FM011200 34007KT P6SM SCT025 BKN150
     FM012100 02007KT P6SM VCTS SCT035CB BKN150
     FM020100 03005KT P6SM OVC050=

USA.gov is the U.S. government's official web portal to all federal, state and local government web resources and services.